createdAt,value
2018-09-01T00:01:22.279Z,10.80
2018-09-01T00:06:26.768Z,10.90
2018-09-01T00:11:31.279Z,10.90
2018-09-01T00:16:35.612Z,10.90
2018-09-01T00:21:39.952Z,10.90
2018-09-01T00:26:44.307Z,10.80
2018-09-01T00:31:48.669Z,10.90
2018-09-01T00:36:53.085Z,11.00
2018-09-01T00:41:57.447Z,10.90
2018-09-01T00:47:02.026Z,10.90
2018-09-01T00:52:06.508Z,10.90
2018-09-01T00:57:10.952Z,10.90
2018-09-01T01:02:15.390Z,10.90
2018-09-01T01:07:19.761Z,11.00
2018-09-01T01:12:24.182Z,11.00
2018-09-01T01:17:28.612Z,11.00
2018-09-01T01:22:33.122Z,11.00
2018-09-01T01:27:38.379Z,11.10
2018-09-01T01:32:42.764Z,11.00
2018-09-01T01:37:47.195Z,11.00
2018-09-01T01:42:51.631Z,11.00
2018-09-01T01:47:55.927Z,11.00
2018-09-01T01:53:00.566Z,11.00
2018-09-01T01:58:05.175Z,11.10
2018-09-01T02:03:09.545Z,11.10
2018-09-01T02:08:13.960Z,11.10
2018-09-01T02:13:18.314Z,11.10
2018-09-01T02:18:22.684Z,11.00
2018-09-01T02:23:27.775Z,11.00
2018-09-01T02:28:32.161Z,10.90
2018-09-01T02:33:36.550Z,10.80
2018-09-01T02:38:40.944Z,10.60
2018-09-01T02:43:45.271Z,10.50
2018-09-01T02:48:49.608Z,10.40
2018-09-01T02:53:53.953Z,10.20
2018-09-01T02:58:58.310Z,10.00
2018-09-01T03:04:02.711Z,9.80
2018-09-01T03:09:08.392Z,9.70
2018-09-01T03:14:12.652Z,9.50
2018-09-01T03:19:16.922Z,9.30
2018-09-01T03:24:21.250Z,9.30
2018-09-01T03:29:25.775Z,9.20
2018-09-01T03:34:30.198Z,9.10
2018-09-01T03:39:34.651Z,8.90
2018-09-01T03:44:39.087Z,8.90
2018-09-01T03:49:43.517Z,8.80
2018-09-01T03:54:47.876Z,8.70
2018-09-01T03:59:52.210Z,8.60
2018-09-01T04:04:56.566Z,8.50
2018-09-01T04:10:00.955Z,8.40
2018-09-01T04:15:05.644Z,8.40
2018-09-01T04:20:10.110Z,8.30
2018-09-01T04:25:14.435Z,8.20
2018-09-01T04:30:18.860Z,8.10
2018-09-01T04:35:23.256Z,8.00
2018-09-01T04:40:27.664Z,8.00
2018-09-01T04:45:32.185Z,8.00
2018-09-01T04:50:36.564Z,8.00
2018-09-01T04:55:40.948Z,8.00
2018-09-01T05:00:46.519Z,8.00
2018-09-01T05:05:51.144Z,8.00
2018-09-01T05:10:56.187Z,8.10
2018-09-01T05:16:00.685Z,8.10
2018-09-01T05:21:04.993Z,8.10
2018-09-01T05:26:10.114Z,8.20
2018-09-01T05:31:14.452Z,8.30
2018-09-01T05:36:18.896Z,8.40
2018-09-01T05:41:23.225Z,8.50
2018-09-01T05:46:27.568Z,8.60
2018-09-01T05:51:32.469Z,8.70
2018-09-01T05:56:36.875Z,8.80
2018-09-01T06:01:41.938Z,8.90
2018-09-01T06:06:46.402Z,9.00
2018-09-01T06:11:50.805Z,9.20
2018-09-01T06:16:55.250Z,9.30
2018-09-01T06:21:59.782Z,9.50
2018-09-01T06:27:11.801Z,9.70
2018-09-01T06:32:16.381Z,10.00
2018-09-01T06:37:20.722Z,10.30
2018-09-01T06:42:25.216Z,10.40
2018-09-01T06:47:29.657Z,10.60
2018-09-01T06:52:34.107Z,10.80
2018-09-01T06:57:39.188Z,11.00
2018-09-01T07:02:43.663Z,11.20
2018-09-01T07:07:48.257Z,11.40
2018-09-01T07:12:52.663Z,11.40
2018-09-01T07:17:57.164Z,11.40
2018-09-01T07:23:01.610Z,11.60
2018-09-01T07:28:06.096Z,11.90
2018-09-01T07:33:10.434Z,12.30
2018-09-01T07:38:15.406Z,12.50
2018-09-01T07:43:19.883Z,12.60
2018-09-01T07:48:24.323Z,13.00
2018-09-01T07:53:28.738Z,13.20
2018-09-01T07:58:33.123Z,13.40
2018-09-01T08:03:39.171Z,13.60
2018-09-01T08:08:43.532Z,13.90
2018-09-01T08:13:48.817Z,14.20
2018-09-01T08:18:53.159Z,14.20
2018-09-01T08:23:58.404Z,14.40
2018-09-01T08:29:02.810Z,14.70
2018-09-01T08:34:07.233Z,15.00
2018-09-01T08:39:12.067Z,15.30
2018-09-01T08:44:16.567Z,15.70
2018-09-01T08:49:21.068Z,15.70
2018-09-01T08:54:26.976Z,15.60
2018-09-01T08:59:31.514Z,15.60
2018-09-01T09:04:37.160Z,16.00
2018-09-01T09:09:41.938Z,16.70
2018-09-01T09:14:46.389Z,16.90
2018-09-01T09:19:50.850Z,17.00
2018-09-01T09:24:55.760Z,17.00
2018-09-01T09:30:00.249Z,17.40
2018-09-01T09:35:04.842Z,18.30
2018-09-01T09:40:09.273Z,18.90
2018-09-01T09:45:13.687Z,19.60
2018-09-01T09:50:18.540Z,20.20
2018-09-01T09:55:24.547Z,20.90
2018-09-01T10:00:34.456Z,21.50
2018-09-01T10:05:38.837Z,22.00
2018-09-01T10:10:43.239Z,22.20
2018-09-01T10:15:47.735Z,22.10
2018-09-01T10:20:52.242Z,21.50
2018-09-01T10:25:56.790Z,21.40
2018-09-01T10:31:01.115Z,21.40
2018-09-01T10:36:05.763Z,21.70
2018-09-01T10:41:10.138Z,21.40
2018-09-01T10:46:14.627Z,21.60
2018-09-01T10:51:18.908Z,21.20
2018-09-01T10:56:23.307Z,21.50
2018-09-01T11:01:27.594Z,23.10
2018-09-01T11:06:32.100Z,24.70
2018-09-01T11:11:36.544Z,26.20
2018-09-01T11:16:40.995Z,27.20
2018-09-01T11:21:45.927Z,27.60
2018-09-01T11:26:50.292Z,27.00
2018-09-01T11:31:54.726Z,26.70
2018-09-01T11:36:59.106Z,27.20
2018-09-01T11:42:03.616Z,27.90
2018-09-01T11:47:08.068Z,27.50
2018-09-01T11:52:12.541Z,27.60
2018-09-01T11:57:16.954Z,27.80
2018-09-01T12:02:21.350Z,27.10
2018-09-01T12:07:25.735Z,26.40
2018-09-01T12:12:30.077Z,25.50
2018-09-01T12:17:34.399Z,27.00
2018-09-01T12:22:38.806Z,27.60
2018-09-01T12:27:43.139Z,28.90
2018-09-01T12:32:47.650Z,30.50
2018-09-01T12:37:52.004Z,32.90
2018-09-01T12:42:56.525Z,33.10
2018-09-01T12:48:00.954Z,33.50
2018-09-01T12:53:05.434Z,34.50
2018-09-01T12:58:09.836Z,34.70
2018-09-01T13:03:14.273Z,35.30
2018-09-01T13:08:18.586Z,35.40
2018-09-01T13:13:23.618Z,33.60
2018-09-01T13:18:28.056Z,31.90
2018-09-01T13:23:33.027Z,31.20
2018-09-01T13:28:37.636Z,32.70
2018-09-01T13:33:42.066Z,36.70
2018-09-01T13:38:46.521Z,39.20
2018-09-01T13:43:50.940Z,39.20
2018-09-01T13:48:55.833Z,38.10
2018-09-01T13:54:00.242Z,36.00
2018-09-01T13:59:04.606Z,34.30
2018-09-01T14:04:08.925Z,36.70
2018-09-01T14:09:13.269Z,39.10
2018-09-01T14:14:17.640Z,38.90
2018-09-01T14:19:22.264Z,40.00
2018-09-01T14:24:26.709Z,39.60
2018-09-01T14:29:31.153Z,37.50
2018-09-01T14:34:35.603Z,39.70
2018-09-01T14:39:40.035Z,39.70
2018-09-01T14:44:44.392Z,36.90
2018-09-01T14:49:48.712Z,36.90
2018-09-01T14:54:53.045Z,40.30
2018-09-01T14:59:57.575Z,42.80
2018-09-01T15:05:01.862Z,43.70
2018-09-01T15:10:06.644Z,45.10
2018-09-01T15:15:11.120Z,44.30
2018-09-01T15:20:15.660Z,40.80
2018-09-01T15:25:20.048Z,38.30
2018-09-01T15:30:25.165Z,38.80
2018-09-01T15:35:29.713Z,41.20
2018-09-01T15:40:34.099Z,42.50
2018-09-01T15:45:38.479Z,43.90
2018-09-01T15:50:42.923Z,42.80
2018-09-01T15:55:47.241Z,43.50
2018-09-01T16:00:52.127Z,43.00
2018-09-01T16:05:56.572Z,41.90
2018-09-01T16:11:00.912Z,40.60
2018-09-01T16:16:05.278Z,41.00
2018-09-01T16:21:09.628Z,41.20
2018-09-01T16:26:14.238Z,41.50
2018-09-01T16:31:18.729Z,41.60
2018-09-01T16:36:23.232Z,40.10
2018-09-01T16:41:27.678Z,36.70
2018-09-01T16:46:32.002Z,34.00
2018-09-01T16:51:36.566Z,34.00
2018-09-01T16:56:40.991Z,35.10
2018-09-01T17:01:45.436Z,36.00
2018-09-01T17:06:49.887Z,36.60
2018-09-01T17:11:54.370Z,36.50
2018-09-01T17:16:58.795Z,35.70
2018-09-01T17:22:03.222Z,34.70
2018-09-01T17:27:07.561Z,33.20
2018-09-01T17:32:11.924Z,30.80
2018-09-01T17:37:16.440Z,28.80
2018-09-01T17:42:20.978Z,27.00
2018-09-01T17:47:25.424Z,25.50
2018-09-01T17:52:29.765Z,24.20
2018-09-01T17:57:34.189Z,23.30
2018-09-01T18:02:38.563Z,22.60
2018-09-01T18:07:42.886Z,21.90
2018-09-01T18:12:48.976Z,21.30
2018-09-01T18:17:53.510Z,20.60
2018-09-01T18:22:57.942Z,20.10
2018-09-01T18:28:02.393Z,19.60
2018-09-01T18:33:06.844Z,19.20
2018-09-01T18:38:11.184Z,18.90
2018-09-01T18:43:16.184Z,18.50
2018-09-01T18:48:20.683Z,18.30
2018-09-01T18:53:25.231Z,18.00
2018-09-01T18:58:29.668Z,17.70
2018-09-01T19:03:34.117Z,17.50
2018-09-01T19:08:38.447Z,17.30
2018-09-01T19:13:42.864Z,17.10
2018-09-01T19:18:47.232Z,16.90
2018-09-01T19:23:51.638Z,16.70
2018-09-01T19:28:56.129Z,16.50
2018-09-01T19:34:00.550Z,16.40
2018-09-01T19:39:06.767Z,16.20
2018-09-01T19:44:11.115Z,16.00
2018-09-01T19:49:15.537Z,15.90
2018-09-01T19:54:19.874Z,15.70
2018-09-01T19:59:24.395Z,15.50
2018-09-01T20:04:28.848Z,15.40
2018-09-01T20:09:33.292Z,15.30
2018-09-01T20:14:37.796Z,15.10
2018-09-01T20:19:42.174Z,15.00
2018-09-01T20:24:46.499Z,14.90
2018-09-01T20:29:50.891Z,14.80
2018-09-01T20:34:59.297Z,14.70
2018-09-01T20:40:03.651Z,14.50
2018-09-01T20:45:08.097Z,14.40
2018-09-01T20:50:12.442Z,14.30
2018-09-01T20:55:16.755Z,14.20
2018-09-01T21:00:21.180Z,14.10
2018-09-01T21:05:26.176Z,14.00
2018-09-01T21:10:30.516Z,13.80
2018-09-01T21:15:34.835Z,13.70
2018-09-01T21:20:39.195Z,13.60
2018-09-01T21:25:43.522Z,13.60
2018-09-01T21:30:48.063Z,13.40
2018-09-01T21:35:52.403Z,13.30
2018-09-01T21:40:56.667Z,13.20
2018-09-01T21:46:01.336Z,13.10
2018-09-01T21:51:05.939Z,13.00
2018-09-01T21:56:10.388Z,12.90
2018-09-01T22:01:19.840Z,12.80
2018-09-01T22:06:24.909Z,12.70
2018-09-01T22:11:29.339Z,12.70
2018-09-01T22:16:33.700Z,12.50
2018-09-01T22:21:38.027Z,12.50
2018-09-01T22:26:42.410Z,12.40
2018-09-01T22:31:46.870Z,12.30
2018-09-01T22:36:51.389Z,12.30
2018-09-01T22:41:55.924Z,12.20
2018-09-01T22:47:01.944Z,12.00
2018-09-01T22:52:06.395Z,11.90
2018-09-01T22:57:10.752Z,11.80
2018-09-01T23:02:16.179Z,11.80
2018-09-01T23:07:20.563Z,11.80
2018-09-01T23:12:24.813Z,11.70
2018-09-01T23:17:29.783Z,11.50
2018-09-01T23:22:34.124Z,11.50
2018-09-01T23:27:38.471Z,11.40
2018-09-01T23:32:42.795Z,11.30
2018-09-01T23:37:47.137Z,11.20
2018-09-01T23:42:51.572Z,11.20
2018-09-01T23:47:56.059Z,11.10
2018-09-01T23:53:00.551Z,11.10
2018-09-01T23:58:04.996Z,11.00
